sensor_id;sensor_type;location;lat;lon;timestamp;P1;durP1;ratioP1;P2;durP2;ratioP2
5379;SDS011;2713;42.680;23.310;2023-04-29T00:00:06;14.23;;;11.00;;
5379;SDS011;2713;42.680;23.310;2023-04-29T00:02:39;18.60;;;10.67;;
5379;SDS011;2713;42.680;23.310;2023-04-29T00:05:07;15.63;;;10.93;;
5379;SDS011;2713;42.680;23.310;2023-04-29T00:07:34;17.60;;;10.77;;
5379;SDS011;2713;42.680;23.310;2023-04-29T00:10:02;15.50;;;10.33;;
5379;SDS011;2713;42.680;23.310;2023-04-29T00:12:29;19.47;;;10.20;;
5379;SDS011;2713;42.680;23.310;2023-04-29T00:14:56;17.00;;;9.60;;
5379;SDS011;2713;42.680;23.310;2023-04-29T00:17:24;18.80;;;10.03;;
5379;SDS011;2713;42.680;23.310;2023-04-29T00:19:51;12.57;;;10.40;;
5379;SDS011;2713;42.680;23.310;2023-04-29T00:22:18;13.40;;;10.47;;
5379;SDS011;2713;42.680;23.310;2023-04-29T00:24:46;11.30;;;9.40;;
5379;SDS011;2713;42.680;23.310;2023-04-29T00:27:12;11.17;;;8.47;;
5379;SDS011;2713;42.680;23.310;2023-04-29T00:29:40;16.70;;;8.87;;
5379;SDS011;2713;42.680;23.310;2023-04-29T00:32:07;9.63;;;8.63;;
5379;SDS011;2713;42.680;23.310;2023-04-29T00:34:35;17.07;;;9.73;;
5379;SDS011;2713;42.680;23.310;2023-04-29T00:37:02;12.63;;;9.43;;
5379;SDS011;2713;42.680;23.310;2023-04-29T00:39:29;12.00;;;9.17;;
5379;SDS011;2713;42.680;23.310;2023-04-29T00:41:56;13.93;;;9.30;;
5379;SDS011;2713;42.680;23.310;2023-04-29T00:44:23;11.93;;;9.50;;
5379;SDS011;2713;42.680;23.310;2023-04-29T00:46:50;12.03;;;9.00;;
5379;SDS011;2713;42.680;23.310;2023-04-29T00:49:17;14.97;;;9.53;;
5379;SDS011;2713;42.680;23.310;2023-04-29T00:51:45;17.57;;;9.40;;
5379;SDS011;2713;42.680;23.310;2023-04-29T00:54:13;10.17;;;9.03;;
5379;SDS011;2713;42.680;23.310;2023-04-29T00:56:41;12.77;;;9.20;;
5379;SDS011;2713;42.680;23.310;2023-04-29T00:59:11;11.47;;;9.03;;
5379;SDS011;2713;42.680;23.310;2023-04-29T01:01:40;11.57;;;8.97;;
5379;SDS011;2713;42.680;23.310;2023-04-29T01:04:07;14.50;;;9.83;;
5379;SDS011;2713;42.680;23.310;2023-04-29T01:06:37;11.07;;;8.80;;
5379;SDS011;2713;42.680;23.310;2023-04-29T01:09:20;14.03;;;8.80;;
5379;SDS011;2713;42.680;23.310;2023-04-29T01:11:57;11.47;;;9.00;;
5379;SDS011;2713;42.680;23.310;2023-04-29T01:14:32;11.00;;;9.07;;
5379;SDS011;2713;42.680;23.310;2023-04-29T01:17:03;12.53;;;8.87;;
5379;SDS011;2713;42.680;23.310;2023-04-29T01:19:38;10.43;;;8.67;;
5379;SDS011;2713;42.680;23.310;2023-04-29T01:22:10;15.47;;;8.90;;
5379;SDS011;2713;42.680;23.310;2023-04-29T01:24:38;10.27;;;8.77;;
5379;SDS011;2713;42.680;23.310;2023-04-29T01:27:09;13.70;;;9.77;;
5379;SDS011;2713;42.680;23.310;2023-04-29T01:29:43;12.53;;;9.50;;
5379;SDS011;2713;42.680;23.310;2023-04-29T01:32:17;14.57;;;9.93;;
5379;SDS011;2713;42.680;23.310;2023-04-29T01:34:51;14.00;;;9.90;;
5379;SDS011;2713;42.680;23.310;2023-04-29T01:37:27;13.83;;;9.40;;
5379;SDS011;2713;42.680;23.310;2023-04-29T01:40:07;10.67;;;9.07;;
5379;SDS011;2713;42.680;23.310;2023-04-29T01:42:43;14.60;;;9.57;;
5379;SDS011;2713;42.680;23.310;2023-04-29T01:45:15;12.60;;;10.00;;
5379;SDS011;2713;42.680;23.310;2023-04-29T01:47:45;12.00;;;9.20;;
5379;SDS011;2713;42.680;23.310;2023-04-29T01:50:15;12.60;;;9.00;;
5379;SDS011;2713;42.680;23.310;2023-04-29T01:52:41;12.47;;;9.03;;
5379;SDS011;2713;42.680;23.310;2023-04-29T01:55:10;11.20;;;9.27;;
5379;SDS011;2713;42.680;23.310;2023-04-29T01:57:44;11.37;;;9.30;;
5379;SDS011;2713;42.680;23.310;2023-04-29T02:00:30;10.40;;;8.17;;
5379;SDS011;2713;42.680;23.310;2023-04-29T02:02:57;10.30;;;7.97;;
5379;SDS011;2713;42.680;23.310;2023-04-29T02:05:42;10.93;;;8.73;;
5379;SDS011;2713;42.680;23.310;2023-04-29T02:08:10;11.83;;;8.27;;
5379;SDS011;2713;42.680;23.310;2023-04-29T02:10:46;12.23;;;8.20;;
5379;SDS011;2713;42.680;23.310;2023-04-29T02:13:43;8.70;;;7.80;;
5379;SDS011;2713;42.680;23.310;2023-04-29T02:16:11;15.50;;;8.17;;
5379;SDS011;2713;42.680;23.310;2023-04-29T02:18:43;13.37;;;8.70;;
5379;SDS011;2713;42.680;23.310;2023-04-29T02:21:10;12.50;;;8.30;;
5379;SDS011;2713;42.680;23.310;2023-04-29T02:23:37;12.37;;;8.40;;
5379;SDS011;2713;42.680;23.310;2023-04-29T02:26:05;9.90;;;8.07;;
5379;SDS011;2713;42.680;23.310;2023-04-29T02:28:34;10.63;;;8.33;;
5379;SDS011;2713;42.680;23.310;2023-04-29T02:31:02;10.00;;;8.20;;
5379;SDS011;2713;42.680;23.310;2023-04-29T02:33:29;10.20;;;8.20;;
5379;SDS011;2713;42.680;23.310;2023-04-29T02:35:56;8.47;;;7.33;;
5379;SDS011;2713;42.680;23.310;2023-04-29T02:38:23;7.97;;;7.10;;
5379;SDS011;2713;42.680;23.310;2023-04-29T02:40:50;8.23;;;7.43;;
5379;SDS011;2713;42.680;23.310;2023-04-29T02:43:18;9.43;;;7.23;;
5379;SDS011;2713;42.680;23.310;2023-04-29T02:45:45;11.07;;;7.73;;
5379;SDS011;2713;42.680;23.310;2023-04-29T02:48:12;8.83;;;7.17;;
5379;SDS011;2713;42.680;23.310;2023-04-29T02:50:40;8.73;;;7.20;;
5379;SDS011;2713;42.680;23.310;2023-04-29T02:53:07;10.40;;;6.90;;
5379;SDS011;2713;42.680;23.310;2023-04-29T02:55:34;8.57;;;7.33;;
5379;SDS011;2713;42.680;23.310;2023-04-29T02:58:06;11.57;;;6.73;;
5379;SDS011;2713;42.680;23.310;2023-04-29T03:00:34;11.03;;;7.30;;
5379;SDS011;2713;42.680;23.310;2023-04-29T03:03:01;14.50;;;6.77;;
5379;SDS011;2713;42.680;23.310;2023-04-29T03:05:28;7.60;;;6.80;;
5379;SDS011;2713;42.680;23.310;2023-04-29T03:07:56;9.83;;;7.10;;
5379;SDS011;2713;42.680;23.310;2023-04-29T03:10:23;7.17;;;6.47;;
5379;SDS011;2713;42.680;23.310;2023-04-29T03:12:50;10.33;;;6.83;;
5379;SDS011;2713;42.680;23.310;2023-04-29T03:15:17;7.20;;;6.50;;
5379;SDS011;2713;42.680;23.310;2023-04-29T03:17:45;10.97;;;7.07;;
5379;SDS011;2713;42.680;23.310;2023-04-29T03:20:12;8.17;;;7.37;;
5379;SDS011;2713;42.680;23.310;2023-04-29T03:22:39;8.07;;;7.33;;
5379;SDS011;2713;42.680;23.310;2023-04-29T03:25:07;7.43;;;6.47;;
5379;SDS011;2713;42.680;23.310;2023-04-29T03:27:36;8.73;;;6.97;;
5379;SDS011;2713;42.680;23.310;2023-04-29T03:30:03;10.63;;;7.10;;
5379;SDS011;2713;42.680;23.310;2023-04-29T03:32:30;10.50;;;7.50;;
5379;SDS011;2713;42.680;23.310;2023-04-29T03:35:00;12.03;;;7.90;;
5379;SDS011;2713;42.680;23.310;2023-04-29T03:37:39;13.33;;;8.00;;
5379;SDS011;2713;42.680;23.310;2023-04-29T03:40:28;9.50;;;7.30;;
5379;SDS011;2713;42.680;23.310;2023-04-29T03:42:55;14.97;;;8.23;;
5379;SDS011;2713;42.680;23.310;2023-04-29T03:45:23;9.83;;;8.83;;
5379;SDS011;2713;42.680;23.310;2023-04-29T03:47:50;12.03;;;9.30;;
5379;SDS011;2713;42.680;23.310;2023-04-29T03:50:19;11.67;;;8.80;;
5379;SDS011;2713;42.680;23.310;2023-04-29T03:52:46;11.97;;;8.53;;
5379;SDS011;2713;42.680;23.310;2023-04-29T03:55:15;14.40;;;9.10;;
5379;SDS011;2713;42.680;23.310;2023-04-29T03:57:43;9.73;;;8.07;;
5379;SDS011;2713;42.680;23.310;2023-04-29T04:00:11;10.20;;;8.17;;
5379;SDS011;2713;42.680;23.310;2023-04-29T04:02:42;10.83;;;7.33;;
5379;SDS011;2713;42.680;23.310;2023-04-29T04:05:09;10.10;;;7.40;;
5379;SDS011;2713;42.680;23.310;2023-04-29T04:07:40;12.93;;;7.90;;
5379;SDS011;2713;42.680;23.310;2023-04-29T04:10:33;11.97;;;7.70;;
5379;SDS011;2713;42.680;23.310;2023-04-29T04:13:04;9.10;;;7.93;;
5379;SDS011;2713;42.680;23.310;2023-04-29T04:15:31;9.07;;;8.10;;
5379;SDS011;2713;42.680;23.310;2023-04-29T04:17:58;14.40;;;8.47;;
5379;SDS011;2713;42.680;23.310;2023-04-29T04:20:25;13.93;;;8.17;;
5379;SDS011;2713;42.680;23.310;2023-04-29T04:22:54;12.10;;;8.97;;
5379;SDS011;2713;42.680;23.310;2023-04-29T04:25:24;9.60;;;8.60;;
5379;SDS011;2713;42.680;23.310;2023-04-29T04:27:54;18.43;;;12.47;;
5379;SDS011;2713;42.680;23.310;2023-04-29T04:30:31;13.17;;;8.80;;
5379;SDS011;2713;42.680;23.310;2023-04-29T04:33:01;11.67;;;7.90;;
5379;SDS011;2713;42.680;23.310;2023-04-29T04:35:28;14.00;;;8.67;;
5379;SDS011;2713;42.680;23.310;2023-04-29T04:37:57;11.90;;;8.63;;
5379;SDS011;2713;42.680;23.310;2023-04-29T04:40:24;9.53;;;8.43;;
5379;SDS011;2713;42.680;23.310;2023-04-29T04:43:10;14.43;;;8.93;;
5379;SDS011;2713;42.680;23.310;2023-04-29T04:45:39;9.53;;;8.53;;
5379;SDS011;2713;42.680;23.310;2023-04-29T04:48:06;10.47;;;8.00;;
5379;SDS011;2713;42.680;23.310;2023-04-29T04:50:36;9.13;;;8.13;;
5379;SDS011;2713;42.680;23.310;2023-04-29T04:53:05;10.13;;;8.27;;
5379;SDS011;2713;42.680;23.310;2023-04-29T04:55:42;11.83;;;8.97;;
5379;SDS011;2713;42.680;23.310;2023-04-29T04:58:09;10.63;;;8.90;;
5379;SDS011;2713;42.680;23.310;2023-04-29T05:00:37;14.67;;;9.90;;
5379;SDS011;2713;42.680;23.310;2023-04-29T05:03:12;11.67;;;9.40;;
5379;SDS011;2713;42.680;23.310;2023-04-29T05:05:38;9.90;;;8.20;;
5379;SDS011;2713;42.680;23.310;2023-04-29T05:08:07;9.43;;;7.70;;
5379;SDS011;2713;42.680;23.310;2023-04-29T05:10:41;11.80;;;8.10;;
5379;SDS011;2713;42.680;23.310;2023-04-29T05:13:09;18.87;;;13.50;;
5379;SDS011;2713;42.680;23.310;2023-04-29T05:15:36;10.80;;;8.67;;
5379;SDS011;2713;42.680;23.310;2023-04-29T05:18:04;9.60;;;8.53;;
5379;SDS011;2713;42.680;23.310;2023-04-29T05:20:31;10.00;;;8.70;;
5379;SDS011;2713;42.680;23.310;2023-04-29T05:22:59;11.47;;;9.50;;
5379;SDS011;2713;42.680;23.310;2023-04-29T05:25:30;12.67;;;9.03;;
5379;SDS011;2713;42.680;23.310;2023-04-29T05:27:57;11.50;;;9.30;;
5379;SDS011;2713;42.680;23.310;2023-04-29T05:30:26;10.20;;;8.43;;
5379;SDS011;2713;42.680;23.310;2023-04-29T05:32:53;15.03;;;9.50;;
5379;SDS011;2713;42.680;23.310;2023-04-29T05:35:20;12.60;;;8.00;;
5379;SDS011;2713;42.680;23.310;2023-04-29T05:37:47;14.90;;;11.27;;
5379;SDS011;2713;42.680;23.310;2023-04-29T05:40:36;9.90;;;8.80;;
5379;SDS011;2713;42.680;23.310;2023-04-29T05:43:38;11.00;;;8.43;;
5379;SDS011;2713;42.680;23.310;2023-04-29T05:46:05;10.50;;;9.20;;
5379;SDS011;2713;42.680;23.310;2023-04-29T05:48:32;13.53;;;9.07;;
5379;SDS011;2713;42.680;23.310;2023-04-29T05:50:58;9.17;;;7.93;;
5379;SDS011;2713;42.680;23.310;2023-04-29T05:53:25;9.97;;;8.00;;
5379;SDS011;2713;42.680;23.310;2023-04-29T05:55:53;8.90;;;8.00;;
5379;SDS011;2713;42.680;23.310;2023-04-29T05:58:20;10.60;;;7.47;;
5379;SDS011;2713;42.680;23.310;2023-04-29T06:00:48;8.50;;;7.60;;
5379;SDS011;2713;42.680;23.310;2023-04-29T06:03:19;19.53;;;8.90;;
5379;SDS011;2713;42.680;23.310;2023-04-29T06:05:51;12.30;;;9.00;;
5379;SDS011;2713;42.680;23.310;2023-04-29T06:08:32;11.87;;;8.90;;
5379;SDS011;2713;42.680;23.310;2023-04-29T06:11:04;14.43;;;8.87;;
5379;SDS011;2713;42.680;23.310;2023-04-29T06:13:31;9.67;;;8.60;;
5379;SDS011;2713;42.680;23.310;2023-04-29T06:15:58;11.77;;;9.13;;
5379;SDS011;2713;42.680;23.310;2023-04-29T06:18:29;12.57;;;9.23;;
5379;SDS011;2713;42.680;23.310;2023-04-29T06:20:57;11.67;;;9.57;;
5379;SDS011;2713;42.680;23.310;2023-04-29T06:23:24;10.43;;;9.37;;
5379;SDS011;2713;42.680;23.310;2023-04-29T06:25:51;12.60;;;9.67;;
5379;SDS011;2713;42.680;23.310;2023-04-29T06:28:19;11.13;;;9.93;;
5379;SDS011;2713;42.680;23.310;2023-04-29T06:30:46;12.13;;;9.20;;
5379;SDS011;2713;42.680;23.310;2023-04-29T06:33:13;10.77;;;9.23;;
5379;SDS011;2713;42.680;23.310;2023-04-29T06:35:40;11.93;;;9.43;;
5379;SDS011;2713;42.680;23.310;2023-04-29T06:38:25;11.87;;;9.70;;
5379;SDS011;2713;42.680;23.310;2023-04-29T06:41:07;12.07;;;9.40;;
5379;SDS011;2713;42.680;23.310;2023-04-29T06:43:54;11.43;;;10.23;;
5379;SDS011;2713;42.680;23.310;2023-04-29T06:46:34;14.63;;;10.17;;
5379;SDS011;2713;42.680;23.310;2023-04-29T06:49:08;11.90;;;9.53;;
5379;SDS011;2713;42.680;23.310;2023-04-29T06:51:35;11.57;;;10.20;;
5379;SDS011;2713;42.680;23.310;2023-04-29T06:54:02;13.83;;;10.73;;
5379;SDS011;2713;42.680;23.310;2023-04-29T06:56:29;10.90;;;9.80;;
5379;SDS011;2713;42.680;23.310;2023-04-29T06:58:58;14.60;;;10.70;;
5379;SDS011;2713;42.680;23.310;2023-04-29T07:01:24;13.70;;;10.37;;
5379;SDS011;2713;42.680;23.310;2023-04-29T07:03:51;13.63;;;9.43;;
5379;SDS011;2713;42.680;23.310;2023-04-29T07:06:18;10.20;;;8.47;;
5379;SDS011;2713;42.680;23.310;2023-04-29T07:08:45;11.50;;;8.50;;
5379;SDS011;2713;42.680;23.310;2023-04-29T07:11:13;10.37;;;8.27;;
5379;SDS011;2713;42.680;23.310;2023-04-29T07:13:40;9.77;;;8.27;;
5379;SDS011;2713;42.680;23.310;2023-04-29T07:16:14;12.80;;;9.17;;
5379;SDS011;2713;42.680;23.310;2023-04-29T07:18:42;11.13;;;8.77;;
5379;SDS011;2713;42.680;23.310;2023-04-29T07:21:09;10.07;;;9.17;;
5379;SDS011;2713;42.680;23.310;2023-04-29T07:23:35;11.33;;;8.77;;
5379;SDS011;2713;42.680;23.310;2023-04-29T07:26:07;10.33;;;8.93;;
5379;SDS011;2713;42.680;23.310;2023-04-29T07:28:35;10.10;;;9.07;;
5379;SDS011;2713;42.680;23.310;2023-04-29T07:31:02;11.37;;;8.93;;
5379;SDS011;2713;42.680;23.310;2023-04-29T07:33:30;12.77;;;8.83;;
5379;SDS011;2713;42.680;23.310;2023-04-29T07:35:57;12.93;;;9.30;;
5379;SDS011;2713;42.680;23.310;2023-04-29T07:38:24;9.77;;;8.70;;
5379;SDS011;2713;42.680;23.310;2023-04-29T07:40:51;10.23;;;9.20;;
5379;SDS011;2713;42.680;23.310;2023-04-29T07:43:17;9.60;;;8.70;;
5379;SDS011;2713;42.680;23.310;2023-04-29T07:45:44;9.37;;;8.43;;
5379;SDS011;2713;42.680;23.310;2023-04-29T07:48:11;10.53;;;9.17;;
5379;SDS011;2713;42.680;23.310;2023-04-29T07:50:39;10.40;;;9.30;;
5379;SDS011;2713;42.680;23.310;2023-04-29T07:53:08;9.80;;;8.40;;
5379;SDS011;2713;42.680;23.310;2023-04-29T07:55:35;11.83;;;9.00;;
5379;SDS011;2713;42.680;23.310;2023-04-29T07:58:03;9.77;;;8.87;;
5379;SDS011;2713;42.680;23.310;2023-04-29T08:00:30;10.47;;;8.73;;
5379;SDS011;2713;42.680;23.310;2023-04-29T08:02:57;10.00;;;8.77;;
5379;SDS011;2713;42.680;23.310;2023-04-29T08:05:25;9.60;;;8.60;;
5379;SDS011;2713;42.680;23.310;2023-04-29T08:07:53;10.37;;;9.23;;
5379;SDS011;2713;42.680;23.310;2023-04-29T08:10:20;9.30;;;8.33;;
5379;SDS011;2713;42.680;23.310;2023-04-29T08:12:47;11.77;;;8.60;;
5379;SDS011;2713;42.680;23.310;2023-04-29T08:15:14;10.57;;;9.47;;
5379;SDS011;2713;42.680;23.310;2023-04-29T08:17:42;13.60;;;8.40;;
5379;SDS011;2713;42.680;23.310;2023-04-29T08:20:10;16.33;;;9.97;;
5379;SDS011;2713;42.680;23.310;2023-04-29T08:22:37;11.33;;;8.77;;
5379;SDS011;2713;42.680;23.310;2023-04-29T08:25:06;9.87;;;8.50;;
5379;SDS011;2713;42.680;23.310;2023-04-29T08:27:34;11.30;;;8.77;;
5379;SDS011;2713;42.680;23.310;2023-04-29T08:30:01;9.63;;;8.73;;
5379;SDS011;2713;42.680;23.310;2023-04-29T08:32:28;12.17;;;9.10;;
5379;SDS011;2713;42.680;23.310;2023-04-29T08:34:54;10.40;;;8.90;;
5379;SDS011;2713;42.680;23.310;2023-04-29T08:37:21;9.50;;;8.17;;
5379;SDS011;2713;42.680;23.310;2023-04-29T08:39:48;9.00;;;8.13;;
5379;SDS011;2713;42.680;23.310;2023-04-29T08:42:16;15.83;;;10.10;;
5379;SDS011;2713;42.680;23.310;2023-04-29T08:44:54;9.43;;;8.40;;
5379;SDS011;2713;42.680;23.310;2023-04-29T08:47:22;11.10;;;6.93;;
5379;SDS011;2713;42.680;23.310;2023-04-29T08:49:49;14.20;;;8.87;;
5379;SDS011;2713;42.680;23.310;2023-04-29T08:52:16;10.17;;;8.30;;
5379;SDS011;2713;42.680;23.310;2023-04-29T08:54:43;14.03;;;8.10;;
5379;SDS011;2713;42.680;23.310;2023-04-29T08:57:10;7.73;;;6.93;;
5379;SDS011;2713;42.680;23.310;2023-04-29T08:59:38;9.93;;;7.00;;
5379;SDS011;2713;42.680;23.310;2023-04-29T09:02:05;8.70;;;6.90;;
5379;SDS011;2713;42.680;23.310;2023-04-29T09:04:40;9.47;;;8.40;;
5379;SDS011;2713;42.680;23.310;2023-04-29T09:07:12;8.47;;;7.27;;
5379;SDS011;2713;42.680;23.310;2023-04-29T09:09:40;12.07;;;7.90;;
5379;SDS011;2713;42.680;23.310;2023-04-29T09:12:08;11.97;;;7.80;;
5379;SDS011;2713;42.680;23.310;2023-04-29T09:14:34;8.80;;;7.63;;
5379;SDS011;2713;42.680;23.310;2023-04-29T09:17:03;8.00;;;7.13;;
5379;SDS011;2713;42.680;23.310;2023-04-29T09:19:30;7.70;;;6.90;;
5379;SDS011;2713;42.680;23.310;2023-04-29T09:21:58;9.07;;;7.40;;
5379;SDS011;2713;42.680;23.310;2023-04-29T09:24:26;8.27;;;7.40;;
5379;SDS011;2713;42.680;23.310;2023-04-29T09:26:53;9.20;;;7.63;;
5379;SDS011;2713;42.680;23.310;2023-04-29T09:29:20;8.83;;;8.03;;
5379;SDS011;2713;42.680;23.310;2023-04-29T09:31:48;8.50;;;7.60;;
5379;SDS011;2713;42.680;23.310;2023-04-29T09:34:18;11.97;;;9.07;;
5379;SDS011;2713;42.680;23.310;2023-04-29T09:36:56;11.10;;;7.40;;
5379;SDS011;2713;42.680;23.310;2023-04-29T09:39:23;11.70;;;9.83;;
5379;SDS011;2713;42.680;23.310;2023-04-29T09:41:57;19.00;;;10.20;;
5379;SDS011;2713;42.680;23.310;2023-04-29T09:44:29;9.80;;;8.53;;
5379;SDS011;2713;42.680;23.310;2023-04-29T09:46:58;9.73;;;8.50;;
5379;SDS011;2713;42.680;23.310;2023-04-29T09:49:29;9.10;;;8.20;;
5379;SDS011;2713;42.680;23.310;2023-04-29T09:52:00;10.63;;;8.73;;
5379;SDS011;2713;42.680;23.310;2023-04-29T09:54:28;14.53;;;11.40;;
5379;SDS011;2713;42.680;23.310;2023-04-29T09:56:57;11.63;;;10.37;;
5379;SDS011;2713;42.680;23.310;2023-04-29T09:59:24;16.50;;;9.23;;
5379;SDS011;2713;42.680;23.310;2023-04-29T10:01:52;11.43;;;9.07;;
5379;SDS011;2713;42.680;23.310;2023-04-29T10:04:21;10.83;;;8.53;;
5379;SDS011;2713;42.680;23.310;2023-04-29T10:06:50;12.77;;;9.17;;
5379;SDS011;2713;42.680;23.310;2023-04-29T10:09:18;10.47;;;7.87;;
5379;SDS011;2713;42.680;23.310;2023-04-29T10:11:48;7.63;;;6.93;;
5379;SDS011;2713;42.680;23.310;2023-04-29T10:14:16;11.97;;;7.63;;
5379;SDS011;2713;42.680;23.310;2023-04-29T10:16:45;8.37;;;7.20;;
5379;SDS011;2713;42.680;23.310;2023-04-29T10:19:17;11.70;;;8.23;;
5379;SDS011;2713;42.680;23.310;2023-04-29T10:21:54;10.97;;;6.60;;
5379;SDS011;2713;42.680;23.310;2023-04-29T10:24:25;10.20;;;6.97;;
5379;SDS011;2713;42.680;23.310;2023-04-29T10:26:52;7.00;;;6.30;;
5379;SDS011;2713;42.680;23.310;2023-04-29T10:29:22;9.90;;;6.83;;
5379;SDS011;2713;42.680;23.310;2023-04-29T10:31:52;10.13;;;6.90;;
5379;SDS011;2713;42.680;23.310;2023-04-29T10:34:21;9.13;;;5.97;;
5379;SDS011;2713;42.680;23.310;2023-04-29T10:36:49;9.07;;;5.87;;
5379;SDS011;2713;42.680;23.310;2023-04-29T10:39:20;9.33;;;6.00;;
5379;SDS011;2713;42.680;23.310;2023-04-29T10:41:52;8.13;;;5.93;;
5379;SDS011;2713;42.680;23.310;2023-04-29T10:44:20;7.33;;;6.43;;
5379;SDS011;2713;42.680;23.310;2023-04-29T10:46:48;9.83;;;7.10;;
5379;SDS011;2713;42.680;23.310;2023-04-29T10:49:15;7.83;;;5.47;;
5379;SDS011;2713;42.680;23.310;2023-04-29T10:51:42;5.90;;;5.40;;
5379;SDS011;2713;42.680;23.310;2023-04-29T10:54:11;9.77;;;5.77;;
5379;SDS011;2713;42.680;23.310;2023-04-29T10:56:42;8.87;;;5.00;;
5379;SDS011;2713;42.680;23.310;2023-04-29T10:59:12;8.07;;;5.43;;
5379;SDS011;2713;42.680;23.310;2023-04-29T11:01:46;12.37;;;5.30;;
5379;SDS011;2713;42.680;23.310;2023-04-29T11:04:15;5.23;;;4.77;;
5379;SDS011;2713;42.680;23.310;2023-04-29T11:06:44;5.10;;;4.60;;
5379;SDS011;2713;42.680;23.310;2023-04-29T11:09:13;9.67;;;5.10;;
5379;SDS011;2713;42.680;23.310;2023-04-29T11:11:46;5.70;;;4.90;;
5379;SDS011;2713;42.680;23.310;2023-04-29T11:14:15;5.50;;;4.80;;
5379;SDS011;2713;42.680;23.310;2023-04-29T11:16:49;5.50;;;4.33;;
5379;SDS011;2713;42.680;23.310;2023-04-29T11:19:17;7.37;;;4.10;;
5379;SDS011;2713;42.680;23.310;2023-04-29T11:21:44;5.03;;;4.13;;
5379;SDS011;2713;42.680;23.310;2023-04-29T11:24:12;3.97;;;3.70;;
5379;SDS011;2713;42.680;23.310;2023-04-29T11:26:41;3.97;;;3.60;;
5379;SDS011;2713;42.680;23.310;2023-04-29T11:29:11;4.40;;;3.40;;
5379;SDS011;2713;42.680;23.310;2023-04-29T11:31:39;3.00;;;2.70;;
5379;SDS011;2713;42.680;23.310;2023-04-29T11:34:06;3.00;;;2.80;;
5379;SDS011;2713;42.680;23.310;2023-04-29T11:36:33;4.23;;;3.13;;
5379;SDS011;2713;42.680;23.310;2023-04-29T11:39:01;3.63;;;3.33;;
5379;SDS011;2713;42.680;23.310;2023-04-29T11:41:29;3.80;;;3.47;;
5379;SDS011;2713;42.680;23.310;2023-04-29T11:43:57;2.97;;;2.77;;
5379;SDS011;2713;42.680;23.310;2023-04-29T11:46:26;3.70;;;3.07;;
5379;SDS011;2713;42.680;23.310;2023-04-29T11:48:56;3.30;;;2.87;;
5379;SDS011;2713;42.680;23.310;2023-04-29T11:51:24;3.50;;;2.80;;
5379;SDS011;2713;42.680;23.310;2023-04-29T11:53:52;5.50;;;3.40;;
5379;SDS011;2713;42.680;23.310;2023-04-29T11:56:20;5.13;;;3.00;;
5379;SDS011;2713;42.680;23.310;2023-04-29T11:58:49;4.40;;;3.70;;
5379;SDS011;2713;42.680;23.310;2023-04-29T12:01:20;4.93;;;3.10;;
5379;SDS011;2713;42.680;23.310;2023-04-29T12:03:48;3.87;;;3.50;;
5379;SDS011;2713;42.680;23.310;2023-04-29T12:06:15;3.73;;;3.37;;
5379;SDS011;2713;42.680;23.310;2023-04-29T12:08:42;4.57;;;4.10;;
5379;SDS011;2713;42.680;23.310;2023-04-29T12:11:12;5.10;;;3.70;;
5379;SDS011;2713;42.680;23.310;2023-04-29T12:13:39;4.13;;;3.73;;
5379;SDS011;2713;42.680;23.310;2023-04-29T12:16:06;4.53;;;3.30;;
5379;SDS011;2713;42.680;23.310;2023-04-29T12:18:34;6.13;;;3.60;;
5379;SDS011;2713;42.680;23.310;2023-04-29T12:21:02;4.43;;;3.20;;
5379;SDS011;2713;42.680;23.310;2023-04-29T12:23:29;4.00;;;3.20;;
5379;SDS011;2713;42.680;23.310;2023-04-29T12:25:56;3.40;;;3.10;;
5379;SDS011;2713;42.680;23.310;2023-04-29T12:28:25;6.37;;;3.37;;
5379;SDS011;2713;42.680;23.310;2023-04-29T12:30:53;6.37;;;3.70;;
5379;SDS011;2713;42.680;23.310;2023-04-29T12:33:21;4.53;;;4.20;;
5379;SDS011;2713;42.680;23.310;2023-04-29T12:35:48;3.67;;;3.20;;
5379;SDS011;2713;42.680;23.310;2023-04-29T12:38:20;7.10;;;3.00;;
5379;SDS011;2713;42.680;23.310;2023-04-29T12:40:47;3.03;;;2.80;;
5379;SDS011;2713;42.680;23.310;2023-04-29T12:43:15;3.07;;;2.77;;
5379;SDS011;2713;42.680;23.310;2023-04-29T12:45:43;4.33;;;3.40;;
5379;SDS011;2713;42.680;23.310;2023-04-29T12:48:10;3.43;;;3.10;;
5379;SDS011;2713;42.680;23.310;2023-04-29T12:50:38;3.80;;;3.50;;
5379;SDS011;2713;42.680;23.310;2023-04-29T12:53:05;3.83;;;3.57;;
5379;SDS011;2713;42.680;23.310;2023-04-29T12:55:35;6.03;;;3.13;;
5379;SDS011;2713;42.680;23.310;2023-04-29T12:58:04;3.10;;;2.80;;
5379;SDS011;2713;42.680;23.310;2023-04-29T13:00:31;3.90;;;3.40;;
5379;SDS011;2713;42.680;23.310;2023-04-29T13:03:01;3.03;;;2.70;;
5379;SDS011;2713;42.680;23.310;2023-04-29T13:05:28;3.23;;;2.77;;
5379;SDS011;2713;42.680;23.310;2023-04-29T13:07:55;3.47;;;3.20;;
5379;SDS011;2713;42.680;23.310;2023-04-29T13:10:22;4.23;;;2.90;;
5379;SDS011;2713;42.680;23.310;2023-04-29T13:12:50;3.50;;;3.20;;
5379;SDS011;2713;42.680;23.310;2023-04-29T13:15:17;3.23;;;3.00;;
5379;SDS011;2713;42.680;23.310;2023-04-29T13:17:43;3.33;;;2.70;;
5379;SDS011;2713;42.680;23.310;2023-04-29T13:20:11;2.80;;;2.60;;
5379;SDS011;2713;42.680;23.310;2023-04-29T13:22:39;8.10;;;3.03;;
5379;SDS011;2713;42.680;23.310;2023-04-29T13:25:07;3.40;;;3.10;;
5379;SDS011;2713;42.680;23.310;2023-04-29T13:27:36;3.57;;;2.97;;
5379;SDS011;2713;42.680;23.310;2023-04-29T13:30:05;4.47;;;3.20;;
5379;SDS011;2713;42.680;23.310;2023-04-29T13:32:33;5.60;;;3.03;;
5379;SDS011;2713;42.680;23.310;2023-04-29T13:35:00;3.87;;;2.60;;
5379;SDS011;2713;42.680;23.310;2023-04-29T13:37:27;4.53;;;2.20;;
5379;SDS011;2713;42.680;23.310;2023-04-29T13:39:54;3.03;;;2.53;;
5379;SDS011;2713;42.680;23.310;2023-04-29T13:42:21;2.50;;;2.20;;
5379;SDS011;2713;42.680;23.310;2023-04-29T13:44:47;2.63;;;2.43;;
5379;SDS011;2713;42.680;23.310;2023-04-29T13:47:16;3.63;;;2.83;;
5379;SDS011;2713;42.680;23.310;2023-04-29T13:49:43;2.70;;;2.50;;
5379;SDS011;2713;42.680;23.310;2023-04-29T13:52:09;2.23;;;2.07;;
5379;SDS011;2713;42.680;23.310;2023-04-29T13:54:36;3.30;;;3.00;;
5379;SDS011;2713;42.680;23.310;2023-04-29T13:57:04;4.50;;;2.70;;
5379;SDS011;2713;42.680;23.310;2023-04-29T13:59:31;3.63;;;2.77;;
5379;SDS011;2713;42.680;23.310;2023-04-29T14:01:58;2.77;;;2.57;;
5379;SDS011;2713;42.680;23.310;2023-04-29T14:04:27;2.80;;;2.60;;
5379;SDS011;2713;42.680;23.310;2023-04-29T14:06:54;2.70;;;2.50;;
5379;SDS011;2713;42.680;23.310;2023-04-29T14:09:21;4.23;;;2.83;;
5379;SDS011;2713;42.680;23.310;2023-04-29T14:11:49;2.50;;;2.30;;
5379;SDS011;2713;42.680;23.310;2023-04-29T14:14:16;2.30;;;2.20;;
5379;SDS011;2713;42.680;23.310;2023-04-29T14:16:43;3.33;;;3.10;;
5379;SDS011;2713;42.680;23.310;2023-04-29T14:19:10;2.57;;;2.37;;
5379;SDS011;2713;42.680;23.310;2023-04-29T14:21:38;3.50;;;3.10;;
5379;SDS011;2713;42.680;23.310;2023-04-29T14:24:05;3.10;;;2.80;;
5379;SDS011;2713;42.680;23.310;2023-04-29T14:26:31;3.13;;;2.93;;
5379;SDS011;2713;42.680;23.310;2023-04-29T14:28:58;3.30;;;2.90;;
5379;SDS011;2713;42.680;23.310;2023-04-29T14:31:26;3.00;;;2.43;;
5379;SDS011;2713;42.680;23.310;2023-04-29T14:33:53;5.97;;;2.90;;
5379;SDS011;2713;42.680;23.310;2023-04-29T14:36:20;3.00;;;2.80;;
5379;SDS011;2713;42.680;23.310;2023-04-29T14:38:48;3.37;;;3.10;;
5379;SDS011;2713;42.680;23.310;2023-04-29T14:41:15;3.20;;;2.87;;
5379;SDS011;2713;42.680;23.310;2023-04-29T14:43:42;3.30;;;3.00;;
5379;SDS011;2713;42.680;23.310;2023-04-29T14:46:09;3.67;;;3.37;;
5379;SDS011;2713;42.680;23.310;2023-04-29T14:48:36;3.87;;;3.47;;
5379;SDS011;2713;42.680;23.310;2023-04-29T14:51:03;3.10;;;2.90;;
5379;SDS011;2713;42.680;23.310;2023-04-29T14:53:31;4.33;;;3.80;;
5379;SDS011;2713;42.680;23.310;2023-04-29T14:55:59;6.13;;;3.73;;
5379;SDS011;2713;42.680;23.310;2023-04-29T14:58:26;4.40;;;4.10;;
5379;SDS011;2713;42.680;23.310;2023-04-29T15:00:53;6.80;;;4.40;;
5379;SDS011;2713;42.680;23.310;2023-04-29T15:03:20;4.57;;;4.17;;